sensor_id;sensor_type;location;lat;lon;timestamp;P1;durP1;ratioP1;P2;durP2;ratioP2
14052;SDS011;7101;51.600;7.310;2023-11-18T00:01:46;27.38;;;13.52;;
14052;SDS011;7101;51.600;7.310;2023-11-18T00:04:12;32.33;;;15.02;;
14052;SDS011;7101;51.600;7.310;2023-11-18T00:06:43;33.15;;;14.93;;
14052;SDS011;7101;51.600;7.310;2023-11-18T00:09:10;28.95;;;12.90;;
14052;SDS011;7101;51.600;7.310;2023-11-18T00:11:39;27.35;;;13.32;;
14052;SDS011;7101;51.600;7.310;2023-11-18T00:14:07;26.58;;;14.02;;
14052;SDS011;7101;51.600;7.310;2023-11-18T00:16:35;31.33;;;14.50;;
14052;SDS011;7101;51.600;7.310;2023-11-18T00:19:03;28.23;;;13.30;;
14052;SDS011;7101;51.600;7.310;2023-11-18T00:21:31;29.48;;;13.18;;
14052;SDS011;7101;51.600;7.310;2023-11-18T00:23:59;29.45;;;14.07;;
14052;SDS011;7101;51.600;7.310;2023-11-18T00:26:26;27.55;;;13.88;;
14052;SDS011;7101;51.600;7.310;2023-11-18T00:28:54;28.08;;;14.57;;
14052;SDS011;7101;51.600;7.310;2023-11-18T00:31:21;31.80;;;15.60;;
14052;SDS011;7101;51.600;7.310;2023-11-18T00:33:48;31.50;;;14.82;;
14052;SDS011;7101;51.600;7.310;2023-11-18T00:36:15;28.55;;;15.40;;
14052;SDS011;7101;51.600;7.310;2023-11-18T00:38:42;28.83;;;15.13;;
14052;SDS011;7101;51.600;7.310;2023-11-18T00:41:11;32.33;;;15.27;;
14052;SDS011;7101;51.600;7.310;2023-11-18T00:43:38;29.63;;;14.02;;
14052;SDS011;7101;51.600;7.310;2023-11-18T00:46:05;27.33;;;13.75;;
14052;SDS011;7101;51.600;7.310;2023-11-18T00:48:32;27.42;;;13.02;;
14052;SDS011;7101;51.600;7.310;2023-11-18T00:50:58;28.88;;;13.18;;
14052;SDS011;7101;51.600;7.310;2023-11-18T00:53:25;28.35;;;13.48;;
14052;SDS011;7101;51.600;7.310;2023-11-18T00:55:52;31.25;;;13.10;;
14052;SDS011;7101;51.600;7.310;2023-11-18T00:58:22;25.10;;;12.70;;
14052;SDS011;7101;51.600;7.310;2023-11-18T01:00:48;26.90;;;13.32;;
14052;SDS011;7101;51.600;7.310;2023-11-18T01:03:18;28.52;;;13.73;;
14052;SDS011;7101;51.600;7.310;2023-11-18T01:05:46;25.23;;;12.45;;
14052;SDS011;7101;51.600;7.310;2023-11-18T01:08:13;23.58;;;10.80;;
14052;SDS011;7101;51.600;7.310;2023-11-18T01:13:24;28.08;;;11.60;;
14052;SDS011;7101;51.600;7.310;2023-11-18T01:15:59;25.77;;;11.25;;
14052;SDS011;7101;51.600;7.310;2023-11-18T01:18:30;27.08;;;11.68;;
14052;SDS011;7101;51.600;7.310;2023-11-18T01:21:02;22.10;;;11.25;;
14052;SDS011;7101;51.600;7.310;2023-11-18T01:23:32;22.67;;;11.25;;
14052;SDS011;7101;51.600;7.310;2023-11-18T01:26:01;23.75;;;10.18;;
14052;SDS011;7101;51.600;7.310;2023-11-18T01:28:33;24.83;;;10.27;;
14052;SDS011;7101;51.600;7.310;2023-11-18T01:31:03;24.48;;;11.00;;
14052;SDS011;7101;51.600;7.310;2023-11-18T01:33:32;20.83;;;10.27;;
14052;SDS011;7101;51.600;7.310;2023-11-18T01:36:03;22.33;;;10.80;;
14052;SDS011;7101;51.600;7.310;2023-11-18T01:38:30;18.45;;;9.50;;
14052;SDS011;7101;51.600;7.310;2023-11-18T01:40:57;22.13;;;10.38;;
14052;SDS011;7101;51.600;7.310;2023-11-18T01:43:25;25.55;;;10.32;;
14052;SDS011;7101;51.600;7.310;2023-11-18T01:45:53;25.73;;;10.75;;
14052;SDS011;7101;51.600;7.310;2023-11-18T01:48:21;20.92;;;9.60;;
14052;SDS011;7101;51.600;7.310;2023-11-18T01:50:52;27.00;;;10.32;;
14052;SDS011;7101;51.600;7.310;2023-11-18T01:53:21;22.67;;;9.75;;
14052;SDS011;7101;51.600;7.310;2023-11-18T01:55:50;24.35;;;9.77;;
14052;SDS011;7101;51.600;7.310;2023-11-18T01:58:17;18.08;;;9.88;;
14052;SDS011;7101;51.600;7.310;2023-11-18T02:00:45;24.95;;;10.40;;
14052;SDS011;7101;51.600;7.310;2023-11-18T02:03:14;22.02;;;9.55;;
14052;SDS011;7101;51.600;7.310;2023-11-18T02:05:42;25.55;;;9.93;;
14052;SDS011;7101;51.600;7.310;2023-11-18T02:08:09;23.90;;;10.18;;
14052;SDS011;7101;51.600;7.310;2023-11-18T02:10:41;20.67;;;9.80;;
14052;SDS011;7101;51.600;7.310;2023-11-18T02:13:17;23.48;;;9.63;;
14052;SDS011;7101;51.600;7.310;2023-11-18T02:15:50;19.73;;;9.48;;
14052;SDS011;7101;51.600;7.310;2023-11-18T02:18:23;22.08;;;9.52;;
14052;SDS011;7101;51.600;7.310;2023-11-18T02:20:52;25.45;;;10.35;;
14052;SDS011;7101;51.600;7.310;2023-11-18T02:23:20;21.15;;;9.80;;
14052;SDS011;7101;51.600;7.310;2023-11-18T02:25:50;23.67;;;9.32;;
14052;SDS011;7101;51.600;7.310;2023-11-18T02:28:17;23.40;;;9.82;;
14052;SDS011;7101;51.600;7.310;2023-11-18T02:30:44;21.45;;;9.35;;
14052;SDS011;7101;51.600;7.310;2023-11-18T02:33:15;21.63;;;8.98;;
14052;SDS011;7101;51.600;7.310;2023-11-18T02:35:46;22.50;;;11.02;;
14052;SDS011;7101;51.600;7.310;2023-11-18T02:38:19;25.65;;;10.20;;
14052;SDS011;7101;51.600;7.310;2023-11-18T02:40:51;23.85;;;9.60;;
14052;SDS011;7101;51.600;7.310;2023-11-18T02:43:22;19.67;;;9.35;;
14052;SDS011;7101;51.600;7.310;2023-11-18T02:45:50;24.58;;;10.35;;
14052;SDS011;7101;51.600;7.310;2023-11-18T02:48:20;20.02;;;8.63;;
14052;SDS011;7101;51.600;7.310;2023-11-18T02:50:46;22.80;;;9.50;;
14052;SDS011;7101;51.600;7.310;2023-11-18T02:53:13;19.38;;;8.90;;
14052;SDS011;7101;51.600;7.310;2023-11-18T02:55:40;20.77;;;8.15;;
14052;SDS011;7101;51.600;7.310;2023-11-18T02:58:08;20.63;;;9.18;;
14052;SDS011;7101;51.600;7.310;2023-11-18T03:00:35;18.27;;;8.15;;
14052;SDS011;7101;51.600;7.310;2023-11-18T03:03:03;15.73;;;7.43;;
14052;SDS011;7101;51.600;7.310;2023-11-18T03:05:30;17.02;;;7.82;;
14052;SDS011;7101;51.600;7.310;2023-11-18T03:07:57;23.02;;;8.23;;
14052;SDS011;7101;51.600;7.310;2023-11-18T03:10:24;19.20;;;8.80;;
14052;SDS011;7101;51.600;7.310;2023-11-18T03:12:51;22.40;;;8.77;;
14052;SDS011;7101;51.600;7.310;2023-11-18T03:15:20;15.57;;;7.63;;
14052;SDS011;7101;51.600;7.310;2023-11-18T03:17:48;19.15;;;7.45;;
14052;SDS011;7101;51.600;7.310;2023-11-18T03:20:17;23.25;;;8.52;;
14052;SDS011;7101;51.600;7.310;2023-11-18T03:22:45;16.00;;;7.13;;
14052;SDS011;7101;51.600;7.310;2023-11-18T03:25:14;15.40;;;7.70;;
14052;SDS011;7101;51.600;7.310;2023-11-18T03:27:41;21.30;;;8.32;;
14052;SDS011;7101;51.600;7.310;2023-11-18T03:30:08;18.15;;;8.05;;
14052;SDS011;7101;51.600;7.310;2023-11-18T03:32:37;16.90;;;7.50;;
14052;SDS011;7101;51.600;7.310;2023-11-18T03:35:11;15.70;;;7.38;;
14052;SDS011;7101;51.600;7.310;2023-11-18T03:37:39;17.95;;;8.32;;
14052;SDS011;7101;51.600;7.310;2023-11-18T03:40:07;17.40;;;7.45;;
14052;SDS011;7101;51.600;7.310;2023-11-18T03:42:35;13.98;;;7.07;;
14052;SDS011;7101;51.600;7.310;2023-11-18T03:45:02;16.50;;;7.30;;
14052;SDS011;7101;51.600;7.310;2023-11-18T03:47:30;17.88;;;7.15;;
14052;SDS011;7101;51.600;7.310;2023-11-18T03:50:00;17.45;;;7.18;;
14052;SDS011;7101;51.600;7.310;2023-11-18T03:52:33;17.27;;;7.20;;
14052;SDS011;7101;51.600;7.310;2023-11-18T03:55:02;16.00;;;7.40;;
14052;SDS011;7101;51.600;7.310;2023-11-18T03:57:29;17.90;;;7.57;;
14052;SDS011;7101;51.600;7.310;2023-11-18T03:59:56;15.80;;;7.20;;
14052;SDS011;7101;51.600;7.310;2023-11-18T04:02:23;16.35;;;6.90;;
14052;SDS011;7101;51.600;7.310;2023-11-18T04:04:50;15.90;;;6.88;;
14052;SDS011;7101;51.600;7.310;2023-11-18T04:07:19;19.33;;;7.65;;
14052;SDS011;7101;51.600;7.310;2023-11-18T04:09:47;13.40;;;6.82;;
14052;SDS011;7101;51.600;7.310;2023-11-18T04:12:20;14.63;;;7.57;;
14052;SDS011;7101;51.600;7.310;2023-11-18T04:14:49;13.48;;;6.57;;
14052;SDS011;7101;51.600;7.310;2023-11-18T04:17:16;17.25;;;7.80;;
14052;SDS011;7101;51.600;7.310;2023-11-18T04:19:42;15.18;;;7.60;;
14052;SDS011;7101;51.600;7.310;2023-11-18T04:22:10;21.80;;;8.60;;
14052;SDS011;7101;51.600;7.310;2023-11-18T04:24:38;14.35;;;7.38;;
14052;SDS011;7101;51.600;7.310;2023-11-18T04:27:05;20.45;;;8.23;;
14052;SDS011;7101;51.600;7.310;2023-11-18T04:29:33;19.15;;;7.32;;
14052;SDS011;7101;51.600;7.310;2023-11-18T04:32:01;20.85;;;8.38;;
14052;SDS011;7101;51.600;7.310;2023-11-18T04:34:28;16.77;;;7.57;;
14052;SDS011;7101;51.600;7.310;2023-11-18T04:36:55;14.40;;;7.35;;
14052;SDS011;7101;51.600;7.310;2023-11-18T04:39:25;16.13;;;7.85;;
14052;SDS011;7101;51.600;7.310;2023-11-18T04:41:54;17.95;;;7.30;;
14052;SDS011;7101;51.600;7.310;2023-11-18T04:44:22;24.70;;;8.63;;
14052;SDS011;7101;51.600;7.310;2023-11-18T04:46:48;13.00;;;6.10;;
14052;SDS011;7101;51.600;7.310;2023-11-18T04:49:16;16.27;;;7.75;;
14052;SDS011;7101;51.600;7.310;2023-11-18T04:51:44;18.88;;;8.02;;
14052;SDS011;7101;51.600;7.310;2023-11-18T04:54:11;14.10;;;6.57;;
14052;SDS011;7101;51.600;7.310;2023-11-18T04:56:40;14.93;;;6.70;;
14052;SDS011;7101;51.600;7.310;2023-11-18T04:59:08;15.88;;;6.88;;
14052;SDS011;7101;51.600;7.310;2023-11-18T05:01:37;19.08;;;7.50;;
14052;SDS011;7101;51.600;7.310;2023-11-18T05:04:05;19.48;;;8.23;;
14052;SDS011;7101;51.600;7.310;2023-11-18T05:06:33;19.95;;;8.07;;
14052;SDS011;7101;51.600;7.310;2023-11-18T05:09:00;19.60;;;9.00;;
14052;SDS011;7101;51.600;7.310;2023-11-18T05:11:27;21.10;;;9.27;;
14052;SDS011;7101;51.600;7.310;2023-11-18T05:13:53;17.80;;;8.77;;
14052;SDS011;7101;51.600;7.310;2023-11-18T05:16:22;19.63;;;9.00;;
14052;SDS011;7101;51.600;7.310;2023-11-18T05:18:49;23.50;;;9.27;;
14052;SDS011;7101;51.600;7.310;2023-11-18T05:21:17;19.85;;;8.80;;
14052;SDS011;7101;51.600;7.310;2023-11-18T05:23:43;17.95;;;8.82;;
14052;SDS011;7101;51.600;7.310;2023-11-18T05:26:10;19.00;;;8.85;;
14052;SDS011;7101;51.600;7.310;2023-11-18T05:28:37;21.77;;;10.27;;
14052;SDS011;7101;51.600;7.310;2023-11-18T05:31:04;20.60;;;8.02;;
14052;SDS011;7101;51.600;7.310;2023-11-18T05:33:32;17.90;;;7.95;;
14052;SDS011;7101;51.600;7.310;2023-11-18T05:36:00;15.40;;;7.15;;
14052;SDS011;7101;51.600;7.310;2023-11-18T05:38:30;18.08;;;7.20;;
14052;SDS011;7101;51.600;7.310;2023-11-18T05:40:59;15.50;;;7.20;;
14052;SDS011;7101;51.600;7.310;2023-11-18T05:43:29;16.83;;;7.50;;
14052;SDS011;7101;51.600;7.310;2023-11-18T05:46:01;13.73;;;6.68;;
14052;SDS011;7101;51.600;7.310;2023-11-18T05:48:47;14.45;;;6.53;;
14052;SDS011;7101;51.600;7.310;2023-11-18T05:51:18;16.77;;;7.72;;
14052;SDS011;7101;51.600;7.310;2023-11-18T05:53:46;16.30;;;7.10;;
14052;SDS011;7101;51.600;7.310;2023-11-18T05:56:13;16.13;;;6.85;;
14052;SDS011;7101;51.600;7.310;2023-11-18T05:58:42;14.50;;;7.30;;
14052;SDS011;7101;51.600;7.310;2023-11-18T06:01:13;16.55;;;6.90;;
14052;SDS011;7101;51.600;7.310;2023-11-18T06:03:48;17.33;;;6.65;;
14052;SDS011;7101;51.600;7.310;2023-11-18T06:06:16;12.95;;;6.30;;
14052;SDS011;7101;51.600;7.310;2023-11-18T06:08:47;16.25;;;7.57;;
14052;SDS011;7101;51.600;7.310;2023-11-18T06:11:16;13.52;;;6.13;;
14052;SDS011;7101;51.600;7.310;2023-11-18T06:13:44;13.57;;;6.25;;
14052;SDS011;7101;51.600;7.310;2023-11-18T06:16:12;17.40;;;7.22;;
14052;SDS011;7101;51.600;7.310;2023-11-18T06:18:41;16.73;;;7.03;;
14052;SDS011;7101;51.600;7.310;2023-11-18T06:21:12;15.27;;;6.93;;
14052;SDS011;7101;51.600;7.310;2023-11-18T06:23:39;15.45;;;6.30;;
14052;SDS011;7101;51.600;7.310;2023-11-18T06:26:06;12.88;;;6.07;;
14052;SDS011;7101;51.600;7.310;2023-11-18T06:28:35;15.73;;;6.50;;
14052;SDS011;7101;51.600;7.310;2023-11-18T06:31:02;12.15;;;6.85;;
14052;SDS011;7101;51.600;7.310;2023-11-18T06:33:30;17.75;;;7.43;;
14052;SDS011;7101;51.600;7.310;2023-11-18T06:35:57;16.85;;;7.85;;
14052;SDS011;7101;51.600;7.310;2023-11-18T06:38:26;20.23;;;6.53;;
14052;SDS011;7101;51.600;7.310;2023-11-18T06:40:58;12.27;;;6.18;;
14052;SDS011;7101;51.600;7.310;2023-11-18T06:43:27;15.10;;;6.40;;
14052;SDS011;7101;51.600;7.310;2023-11-18T06:46:01;11.98;;;5.93;;
14052;SDS011;7101;51.600;7.310;2023-11-18T06:48:34;12.63;;;6.40;;
14052;SDS011;7101;51.600;7.310;2023-11-18T06:51:06;14.63;;;6.60;;
14052;SDS011;7101;51.600;7.310;2023-11-18T06:53:35;12.10;;;6.13;;
14052;SDS011;7101;51.600;7.310;2023-11-18T06:56:04;14.07;;;7.00;;
14052;SDS011;7101;51.600;7.310;2023-11-18T06:58:32;13.43;;;6.60;;
14052;SDS011;7101;51.600;7.310;2023-11-18T07:00:59;15.43;;;7.18;;
14052;SDS011;7101;51.600;7.310;2023-11-18T07:03:28;15.63;;;6.53;;
14052;SDS011;7101;51.600;7.310;2023-11-18T07:05:55;12.43;;;7.05;;
14052;SDS011;7101;51.600;7.310;2023-11-18T07:08:22;15.35;;;7.22;;
14052;SDS011;7101;51.600;7.310;2023-11-18T07:10:50;14.48;;;6.35;;
14052;SDS011;7101;51.600;7.310;2023-11-18T07:13:17;12.30;;;6.72;;
14052;SDS011;7101;51.600;7.310;2023-11-18T07:15:48;15.80;;;7.82;;
14052;SDS011;7101;51.600;7.310;2023-11-18T07:18:17;13.18;;;6.80;;
14052;SDS011;7101;51.600;7.310;2023-11-18T07:20:47;15.95;;;7.15;;
14052;SDS011;7101;51.600;7.310;2023-11-18T07:23:14;12.90;;;6.55;;
14052;SDS011;7101;51.600;7.310;2023-11-18T07:25:42;15.25;;;7.40;;
14052;SDS011;7101;51.600;7.310;2023-11-18T07:28:11;18.55;;;7.22;;
14052;SDS011;7101;51.600;7.310;2023-11-18T07:30:40;15.35;;;7.18;;
14052;SDS011;7101;51.600;7.310;2023-11-18T07:33:07;16.45;;;7.15;;
14052;SDS011;7101;51.600;7.310;2023-11-18T07:35:34;13.35;;;6.78;;
14052;SDS011;7101;51.600;7.310;2023-11-18T07:38:02;13.02;;;6.78;;
14052;SDS011;7101;51.600;7.310;2023-11-18T07:40:28;16.90;;;7.82;;
14052;SDS011;7101;51.600;7.310;2023-11-18T07:42:58;13.93;;;6.90;;
14052;SDS011;7101;51.600;7.310;2023-11-18T07:45:28;18.30;;;8.07;;
14052;SDS011;7101;51.600;7.310;2023-11-18T07:48:02;15.02;;;7.88;;
14052;SDS011;7101;51.600;7.310;2023-11-18T07:50:31;14.10;;;7.07;;
14052;SDS011;7101;51.600;7.310;2023-11-18T07:52:58;15.00;;;7.20;;
14052;SDS011;7101;51.600;7.310;2023-11-18T07:55:25;13.85;;;7.40;;
14052;SDS011;7101;51.600;7.310;2023-11-18T07:57:53;13.50;;;7.47;;
14052;SDS011;7101;51.600;7.310;2023-11-18T08:00:20;15.85;;;6.78;;
14052;SDS011;7101;51.600;7.310;2023-11-18T08:02:50;15.93;;;8.27;;
14052;SDS011;7101;51.600;7.310;2023-11-18T08:05:19;16.88;;;8.02;;
14052;SDS011;7101;51.600;7.310;2023-11-18T08:07:48;19.42;;;8.90;;
14052;SDS011;7101;51.600;7.310;2023-11-18T08:10:15;19.88;;;8.90;;
14052;SDS011;7101;51.600;7.310;2023-11-18T08:12:43;15.07;;;7.93;;
14052;SDS011;7101;51.600;7.310;2023-11-18T08:15:12;18.13;;;8.00;;
14052;SDS011;7101;51.600;7.310;2023-11-18T08:17:39;17.40;;;7.97;;
14052;SDS011;7101;51.600;7.310;2023-11-18T08:20:08;16.52;;;7.90;;
14052;SDS011;7101;51.600;7.310;2023-11-18T08:22:39;16.83;;;8.70;;
14052;SDS011;7101;51.600;7.310;2023-11-18T08:25:07;17.60;;;7.93;;
14052;SDS011;7101;51.600;7.310;2023-11-18T08:27:34;13.50;;;7.57;;
14052;SDS011;7101;51.600;7.310;2023-11-18T08:30:01;13.75;;;7.13;;
14052;SDS011;7101;51.600;7.310;2023-11-18T08:32:30;14.27;;;7.93;;
14052;SDS011;7101;51.600;7.310;2023-11-18T08:34:57;14.38;;;8.02;;
14052;SDS011;7101;51.600;7.310;2023-11-18T08:37:26;15.00;;;7.53;;
14052;SDS011;7101;51.600;7.310;2023-11-18T08:39:53;16.75;;;8.43;;
14052;SDS011;7101;51.600;7.310;2023-11-18T08:42:20;15.48;;;7.03;;
14052;SDS011;7101;51.600;7.310;2023-11-18T08:44:47;15.85;;;8.25;;
14052;SDS011;7101;51.600;7.310;2023-11-18T08:47:14;15.27;;;8.05;;
14052;SDS011;7101;51.600;7.310;2023-11-18T08:49:42;13.93;;;7.35;;
14052;SDS011;7101;51.600;7.310;2023-11-18T08:52:11;15.43;;;7.57;;
14052;SDS011;7101;51.600;7.310;2023-11-18T08:54:39;18.00;;;8.70;;
14052;SDS011;7101;51.600;7.310;2023-11-18T08:57:26;16.73;;;8.98;;
14052;SDS011;7101;51.600;7.310;2023-11-18T08:59:59;19.50;;;9.25;;
14052;SDS011;7101;51.600;7.310;2023-11-18T09:02:32;18.10;;;8.95;;
14052;SDS011;7101;51.600;7.310;2023-11-18T09:05:02;18.70;;;9.40;;
14052;SDS011;7101;51.600;7.310;2023-11-18T09:07:38;18.83;;;9.68;;
14052;SDS011;7101;51.600;7.310;2023-11-18T09:10:06;19.88;;;8.63;;
14052;SDS011;7101;51.600;7.310;2023-11-18T09:12:33;17.10;;;8.68;;
14052;SDS011;7101;51.600;7.310;2023-11-18T09:15:00;19.40;;;8.98;;
14052;SDS011;7101;51.600;7.310;2023-11-18T09:17:31;15.23;;;8.38;;
14052;SDS011;7101;51.600;7.310;2023-11-18T09:19:59;16.50;;;8.85;;
14052;SDS011;7101;51.600;7.310;2023-11-18T09:22:26;20.40;;;9.13;;
14052;SDS011;7101;51.600;7.310;2023-11-18T09:24:53;17.88;;;8.32;;
14052;SDS011;7101;51.600;7.310;2023-11-18T09:27:22;14.02;;;7.97;;
14052;SDS011;7101;51.600;7.310;2023-11-18T09:29:48;17.65;;;9.38;;
14052;SDS011;7101;51.600;7.310;2023-11-18T09:32:15;16.75;;;8.50;;
14052;SDS011;7101;51.600;7.310;2023-11-18T09:34:43;13.30;;;7.93;;
14052;SDS011;7101;51.600;7.310;2023-11-18T09:37:11;16.15;;;8.15;;
14052;SDS011;7101;51.600;7.310;2023-11-18T09:39:38;14.77;;;8.38;;
14052;SDS011;7101;51.600;7.310;2023-11-18T09:42:10;18.90;;;7.88;;
14052;SDS011;7101;51.600;7.310;2023-11-18T09:44:45;15.40;;;7.88;;
14052;SDS011;7101;51.600;7.310;2023-11-18T09:47:13;17.17;;;8.77;;
14052;SDS011;7101;51.600;7.310;2023-11-18T09:49:49;15.20;;;8.18;;
14052;SDS011;7101;51.600;7.310;2023-11-18T09:52:24;13.95;;;8.02;;
14052;SDS011;7101;51.600;7.310;2023-11-18T09:54:58;16.55;;;7.95;;
14052;SDS011;7101;51.600;7.310;2023-11-18T09:57:31;12.90;;;7.43;;
14052;SDS011;7101;51.600;7.310;2023-11-18T10:00:02;11.80;;;6.40;;
14052;SDS011;7101;51.600;7.310;2023-11-18T10:02:47;13.55;;;5.63;;
14052;SDS011;7101;51.600;7.310;2023-11-18T10:05:15;10.02;;;5.70;;
14052;SDS011;7101;51.600;7.310;2023-11-18T10:07:46;7.38;;;4.30;;
14052;SDS011;7101;51.600;7.310;2023-11-18T10:10:14;9.65;;;4.90;;
14052;SDS011;7101;51.600;7.310;2023-11-18T10:12:42;8.18;;;4.78;;
14052;SDS011;7101;51.600;7.310;2023-11-18T10:15:13;11.30;;;5.30;;
14052;SDS011;7101;51.600;7.310;2023-11-18T10:17:44;8.40;;;4.30;;
14052;SDS011;7101;51.600;7.310;2023-11-18T10:20:21;8.10;;;4.65;;
14052;SDS011;7101;51.600;7.310;2023-11-18T10:23:05;7.60;;;4.65;;
14052;SDS011;7101;51.600;7.310;2023-11-18T10:25:34;8.15;;;4.65;;
14052;SDS011;7101;51.600;7.310;2023-11-18T10:28:05;7.70;;;3.75;;
14052;SDS011;7101;51.600;7.310;2023-11-18T10:30:43;6.75;;;4.00;;
14052;SDS011;7101;51.600;7.310;2023-11-18T10:33:13;7.53;;;4.32;;
14052;SDS011;7101;51.600;7.310;2023-11-18T10:35:48;6.90;;;4.50;;
14052;SDS011;7101;51.600;7.310;2023-11-18T10:38:17;10.45;;;4.60;;
14052;SDS011;7101;51.600;7.310;2023-11-18T10:40:44;6.75;;;3.83;;
14052;SDS011;7101;51.600;7.310;2023-11-18T10:43:13;7.28;;;4.43;;
14052;SDS011;7101;51.600;7.310;2023-11-18T10:45:43;8.90;;;3.88;;
14052;SDS011;7101;51.600;7.310;2023-11-18T10:48:12;9.57;;;4.07;;
14052;SDS011;7101;51.600;7.310;2023-11-18T10:50:41;7.25;;;4.28;;
14052;SDS011;7101;51.600;7.310;2023-11-18T10:53:11;7.32;;;4.15;;
14052;SDS011;7101;51.600;7.310;2023-11-18T10:55:41;9.70;;;3.97;;
14052;SDS011;7101;51.600;7.310;2023-11-18T10:58:07;5.38;;;3.40;;
14052;SDS011;7101;51.600;7.310;2023-11-18T11:00:49;6.00;;;3.53;;
14052;SDS011;7101;51.600;7.310;2023-11-18T11:03:18;5.75;;;3.40;;
14052;SDS011;7101;51.600;7.310;2023-11-18T11:05:48;5.30;;;2.92;;
14052;SDS011;7101;51.600;7.310;2023-11-18T11:08:16;5.63;;;3.08;;
14052;SDS011;7101;51.600;7.310;2023-11-18T11:10:43;4.35;;;2.80;;
14052;SDS011;7101;51.600;7.310;2023-11-18T11:13:10;6.40;;;3.58;;
14052;SDS011;7101;51.600;7.310;2023-11-18T11:15:41;6.85;;;4.13;;
14052;SDS011;7101;51.600;7.310;2023-11-18T11:18:18;4.63;;;3.28;;
14052;SDS011;7101;51.600;7.310;2023-11-18T11:20:53;6.43;;;3.25;;
14052;SDS011;7101;51.600;7.310;2023-11-18T11:23:30;8.73;;;4.00;;
14052;SDS011;7101;51.600;7.310;2023-11-18T11:26:12;6.57;;;3.22;;
14052;SDS011;7101;51.600;7.310;2023-11-18T11:28:55;6.65;;;3.60;;
14052;SDS011;7101;51.600;7.310;2023-11-18T11:31:30;5.00;;;3.35;;
14052;SDS011;7101;51.600;7.310;2023-11-18T11:34:03;8.10;;;3.60;;
14052;SDS011;7101;51.600;7.310;2023-11-18T11:36:34;8.57;;;4.18;;
14052;SDS011;7101;51.600;7.310;2023-11-18T11:39:06;7.15;;;3.42;;
14052;SDS011;7101;51.600;7.310;2023-11-18T11:41:42;7.43;;;3.35;;
14052;SDS011;7101;51.600;7.310;2023-11-18T11:44:11;5.30;;;2.90;;
14052;SDS011;7101;51.600;7.310;2023-11-18T11:46:39;7.38;;;3.60;;
14052;SDS011;7101;51.600;7.310;2023-11-18T11:49:09;6.70;;;3.60;;
14052;SDS011;7101;51.600;7.310;2023-11-18T11:51:44;8.00;;;3.25;;
14052;SDS011;7101;51.600;7.310;2023-11-18T11:54:16;5.20;;;3.22;;
14052;SDS011;7101;51.600;7.310;2023-11-18T11:56:47;6.95;;;3.03;;
14052;SDS011;7101;51.600;7.310;2023-11-18T11:59:28;9.15;;;3.90;;
14052;SDS011;7101;51.600;7.310;2023-11-18T12:02:03;5.25;;;3.28;;
14052;SDS011;7101;51.600;7.310;2023-11-18T12:04:36;9.52;;;3.85;;
14052;SDS011;7101;51.600;7.310;2023-11-18T12:07:04;9.02;;;3.83;;
14052;SDS011;7101;51.600;7.310;2023-11-18T12:09:34;7.65;;;3.30;;
14052;SDS011;7101;51.600;7.310;2023-11-18T12:12:04;6.95;;;3.70;;
14052;SDS011;7101;51.600;7.310;2023-11-18T12:14:48;6.32;;;3.40;;
14052;SDS011;7101;51.600;7.310;2023-11-18T12:17:17;8.70;;;3.13;;
14052;SDS011;7101;51.600;7.310;2023-11-18T12:19:48;4.65;;;3.13;;
14052;SDS011;7101;51.600;7.310;2023-11-18T12:22:23;4.68;;;3.08;;
14052;SDS011;7101;51.600;7.310;2023-11-18T12:27:57;7.35;;;3.70;;
14052;SDS011;7101;51.600;7.310;2023-11-18T12:30:39;7.55;;;3.75;;
14052;SDS011;7101;51.600;7.310;2023-11-18T12:33:18;9.70;;;3.72;;
14052;SDS011;7101;51.600;7.310;2023-11-18T12:42:07;7.90;;;3.47;;
14052;SDS011;7101;51.600;7.310;2023-11-18T12:44:45;4.32;;;2.70;;
14052;SDS011;7101;51.600;7.310;2023-11-18T12:47:31;6.38;;;3.72;;
14052;SDS011;7101;51.600;7.310;2023-11-18T12:49:59;8.25;;;4.45;;
14052;SDS011;7101;51.600;7.310;2023-11-18T12:52:27;8.88;;;3.80;;
14052;SDS011;7101;51.600;7.310;2023-11-18T12:54:54;7.40;;;3.38;;
14052;SDS011;7101;51.600;7.310;2023-11-18T12:57:27;5.88;;;3.33;;
14052;SDS011;7101;51.600;7.310;2023-11-18T12:59:57;4.80;;;2.97;;
14052;SDS011;7101;51.600;7.310;2023-11-18T13:02:25;7.22;;;3.13;;
14052;SDS011;7101;51.600;7.310;2023-11-18T13:04:52;9.52;;;3.30;;
14052;SDS011;7101;51.600;7.310;2023-11-18T13:07:19;6.60;;;3.40;;
14052;SDS011;7101;51.600;7.310;2023-11-18T13:09:47;7.18;;;3.20;;
14052;SDS011;7101;51.600;7.310;2023-11-18T13:12:15;6.00;;;3.05;;
14052;SDS011;7101;51.600;7.310;2023-11-18T13:14:45;9.88;;;3.00;;
14052;SDS011;7101;51.600;7.310;2023-11-18T13:17:13;4.70;;;2.97;;
14052;SDS011;7101;51.600;7.310;2023-11-18T13:19:42;4.95;;;2.90;;
14052;SDS011;7101;51.600;7.310;2023-11-18T13:22:10;4.18;;;2.88;;
14052;SDS011;7101;51.600;7.310;2023-11-18T13:24:39;4.45;;;2.55;;
14052;SDS011;7101;51.600;7.310;2023-11-18T13:27:09;9.25;;;3.30;;
14052;SDS011;7101;51.600;7.310;2023-11-18T13:29:38;5.07;;;2.90;;
14052;SDS011;7101;51.600;7.310;2023-11-18T13:32:07;5.45;;;2.88;;
14052;SDS011;7101;51.600;7.310;2023-11-18T13:34:36;5.90;;;2.72;;
14052;SDS011;7101;51.600;7.310;2023-11-18T13:37:08;4.35;;;2.53;;
14052;SDS011;7101;51.600;7.310;2023-11-18T13:39:38;5.03;;;2.97;;
14052;SDS011;7101;51.600;7.310;2023-11-18T13:42:19;8.77;;;3.35;;
14052;SDS011;7101;51.600;7.310;2023-11-18T13:44:46;8.13;;;2.78;;
14052;SDS011;7101;51.600;7.310;2023-11-18T13:47:17;7.53;;;2.97;;
14052;SDS011;7101;51.600;7.310;2023-11-18T13:49:45;5.78;;;3.47;;
14052;SDS011;7101;51.600;7.310;2023-11-18T13:52:15;7.50;;;3.45;;
14052;SDS011;7101;51.600;7.310;2023-11-18T13:54:43;5.07;;;3.20;;
14052;SDS011;7101;51.600;7.310;2023-11-18T13:57:13;6.30;;;3.20;;
14052;SDS011;7101;51.600;7.310;2023-11-18T13:59:40;8.15;;;3.50;;
14052;SDS011;7101;51.600;7.310;2023-11-18T14:02:09;6.38;;;3.10;;
14052;SDS011;7101;51.600;7.310;2023-11-18T14:04:38;9.07;;;3.90;;
14052;SDS011;7101;51.600;7.310;2023-11-18T14:07:08;5.57;;;3.45;;
14052;SDS011;7101;51.600;7.310;2023-11-18T14:09:37;7.07;;;4.13;;
14052;SDS011;7101;51.600;7.310;2023-11-18T14:12:05;7.72;;;3.63;;
14052;SDS011;7101;51.600;7.310;2023-11-18T14:14:33;10.18;;;3.80;;
14052;SDS011;7101;51.600;7.310;2023-11-18T14:17:00;7.00;;;4.00;;
14052;SDS011;7101;51.600;7.310;2023-11-18T14:19:27;7.20;;;3.78;;
14052;SDS011;7101;51.600;7.310;2023-11-18T14:21:56;8.90;;;4.10;;
14052;SDS011;7101;51.600;7.310;2023-11-18T14:24:23;5.15;;;3.47;;
14052;SDS011;7101;51.600;7.310;2023-11-18T14:26:52;9.30;;;3.95;;
14052;SDS011;7101;51.600;7.310;2023-11-18T14:29:20;5.50;;;3.28;;
14052;SDS011;7101;51.600;7.310;2023-11-18T14:31:48;5.85;;;3.40;;
14052;SDS011;7101;51.600;7.310;2023-11-18T14:34:15;5.10;;;3.40;;
14052;SDS011;7101;51.600;7.310;2023-11-18T14:36:43;4.95;;;3.17;;
14052;SDS011;7101;51.600;7.310;2023-11-18T14:39:11;6.25;;;3.10;;
14052;SDS011;7101;51.600;7.310;2023-11-18T14:41:40;11.02;;;3.10;;
14052;SDS011;7101;51.600;7.310;2023-11-18T14:44:08;5.10;;;3.08;;
14052;SDS011;7101;51.600;7.310;2023-11-18T14:46:36;7.32;;;3.38;;
14052;SDS011;7101;51.600;7.310;2023-11-18T14:49:06;5.80;;;3.22;;
14052;SDS011;7101;51.600;7.310;2023-11-18T14:51:35;5.25;;;3.00;;
14052;SDS011;7101;51.600;7.310;2023-11-18T14:54:02;7.95;;;3.22;;
14052;SDS011;7101;51.600;7.310;2023-11-18T14:56:32;4.70;;;3.03;;
14052;SDS011;7101;51.600;7.310;2023-11-18T14:59:00;7.30;;;2.72;;
14052;SDS011;7101;51.600;7.310;2023-11-18T15:01:26;6.80;;;3.50;;
14052;SDS011;7101;51.600;7.310;2023-11-18T15:03:55;5.68;;;3.28;;
14052;SDS011;7101;51.600;7.310;2023-11-18T15:06:25;6.65;;;3.05;;
14052;SDS011;7101;51.600;7.310;2023-11-18T15:08:52;10.07;;;3.30;;
14052;SDS011;7101;51.600;7.310;2023-11-18T15:11:22;6.75;;;3.45;;
14052;SDS011;7101;51.600;7.310;2023-11-18T15:13:51;6.63;;;3.25;;
14052;SDS011;7101;51.600;7.310;2023-11-18T15:16:18;5.95;;;3.20;;